< < Back
Terminal Aerodrome Forecast


Current Version              Previous Versions:   1  2  3  4  5  6  7  8  9  

Terminal Aerodrome Forecast

669
FTUS42 KMLB 210259 AAA
TAFMCO
TAF AMD
KMCO 210259Z 2103/2124 16005KT P6SM BKN150 OVC210
     FM210800 VRB03KT 4SM BR BKN010
     FM211400 29005KT P6SM SCT015 BKN150
     FM211800 33005KT P6SM SCT040 BKN150=

Latest METAR

282
SAUS70 KWBC 211400 RRA
MTRMCO
METAR KMCO 211353Z 21004KT 10SM FEW010 BKN170 BKN250 24/21 A2999 RMK AO2
SLP152 T02390206


USA.gov is the U.S. government's official web portal to all federal, state and local government web resources and services.